Time;durP1;ratioP1;P1;durP2;ratioP2;P2;SDS_P1;SDS_P2;PMS_P1;PMS_P2;Temp;Humidity;BMP_temperature;BMP_pressure;BME280_temperature;BME280_humidity;BME280_pressure;Samples;Min_cycle;Max_cycle;Signal;HPM_P1;HPM_P2
2023/10/28 00:00:07;;;;;;;6.25;2.05;;;;;;;;;;467770;28;1233;-68
2023/10/28 00:00:25;;;;;;;6.40;2.15;;;;;;;;;;467570;28;1117;-68
2023/10/28 00:00:42;;;;;;;6.28;2.30;;;;;;;;;;468172;28;1049;-68
2023/10/28 00:00:58;;;;;;;7.20;2.40;;;;;;;;;;467827;28;911;-68
2023/10/28 00:01:14;;;;;;;7.53;2.30;;;;;;;;;;467554;28;1370;-68
2023/10/28 00:01:30;;;;;;;6.97;2.20;;;;;;;;;;467669;28;1358;-68
2023/10/28 00:01:45;;;;;;;7.60;2.10;;;;;;;;;;468370;28;1200;-68
2023/10/28 00:02:01;;;;;;;6.50;2.00;;;;;;;;;;470894;28;1093;-68
2023/10/28 00:02:16;;;;;;;4.97;1.77;;;;;;;;;;470966;28;921;-67
2023/10/28 00:02:31;;;;;;;4.95;1.70;;;;;;;;;;468691;28;1076;-67
2023/10/28 00:02:48;;;;;;;7.05;1.98;;;;;;;;;;468985;28;1088;-68
2023/10/28 00:03:05;;;;;;;8.07;2.10;;;;;;;;;;468398;28;1186;-68
2023/10/28 00:03:23;;;;;;;7.32;2.05;;;;;;;;;;470052;28;1295;-67
2023/10/28 00:03:39;;;;;;;6.38;1.90;;;;;;;;;;468383;28;1184;-67
2023/10/28 00:03:56;;;;;;;4.65;1.50;;;;;;;;;;468461;28;971;-67
2023/10/28 00:04:12;;;;;;;3.65;1.40;;;;;;;;;;469015;28;941;-67
2023/10/28 00:04:27;;;;;;;5.03;1.70;;;;;;;;;;468105;28;993;-67
2023/10/28 00:04:42;;;;;;;5.25;1.92;;;;;;;;;;467567;28;1191;-67
2023/10/28 00:04:58;;;;;;;5.57;1.90;;;;;;;;;;467064;28;1015;-68
2023/10/28 00:05:14;;;;;;;5.88;1.83;;;;;;;;;;467955;28;1031;-68
2023/10/28 00:05:29;;;;;;;5.80;1.95;;;;;;;;;;464564;28;1274;-68
2023/10/28 00:05:44;;;;;;;6.07;2.07;;;;;;;;;;467225;28;855;-68
2023/10/28 00:06:01;;;;;;;5.17;1.90;;;;;;;;;;468628;28;1037;-68
2023/10/28 00:06:16;;;;;;;4.15;1.60;;;;;;;;;;469296;28;957;-67
2023/10/28 00:06:31;;;;;;;5.50;1.67;;;;;;;;;;469902;28;1352;-67
2023/10/28 00:06:47;;;;;;;6.27;1.77;;;;;;;;;;468459;28;1028;-68
2023/10/28 00:07:02;;;;;;;4.53;1.60;;;;;;;;;;468679;28;1414;-68
2023/10/28 00:07:17;;;;;;;4.17;1.47;;;;;;;;;;467979;28;1078;-68
2023/10/28 00:07:33;;;;;;;4.87;1.60;;;;;;;;;;468104;28;1250;-67
2023/10/28 00:07:48;;;;;;;4.63;1.52;;;;;;;;;;469222;28;1022;-68
2023/10/28 00:08:04;;;;;;;4.53;1.40;;;;;;;;;;467074;28;1038;-68
2023/10/28 00:08:19;;;;;;;4.90;1.52;;;;;;;;;;465272;28;1203;-67
2023/10/28 00:08:36;;;;;;;4.80;1.80;;;;;;;;;;467779;28;1118;-68
2023/10/28 00:08:51;;;;;;;3.60;1.63;;;;;;;;;;467728;28;1200;-67
2023/10/28 00:09:06;;;;;;;3.23;1.53;;;;;;;;;;467003;28;894;-67
2023/10/28 00:09:22;;;;;;;3.43;1.60;;;;;;;;;;468027;28;1004;-67
2023/10/28 00:09:38;;;;;;;3.78;1.60;;;;;;;;;;466870;28;1081;-68
2023/10/28 00:09:55;;;;;;;3.90;1.60;;;;;;;;;;467920;28;962;-67
2023/10/28 00:10:10;;;;;;;4.83;1.77;;;;;;;;;;469886;28;897;-67
2023/10/28 00:10:26;;;;;;;5.50;1.90;;;;;;;;;;470502;28;1176;-67
2023/10/28 00:10:42;;;;;;;4.07;1.70;;;;;;;;;;471413;28;1027;-68
2023/10/28 00:10:57;;;;;;;3.67;1.83;;;;;;;;;;472539;28;1955;-67
2023/10/28 00:11:13;;;;;;;4.00;2.00;;;;;;;;;;468973;28;1005;-68
2023/10/28 00:11:29;;;;;;;3.30;1.73;;;;;;;;;;468814;28;1111;-68
2023/10/28 00:11:45;;;;;;;2.80;1.60;;;;;;;;;;468309;28;1295;-68
2023/10/28 00:12:00;;;;;;;4.00;2.10;;;;;;;;;;468783;28;1129;-67
2023/10/28 00:12:15;;;;;;;4.70;2.13;;;;;;;;;;469282;28;913;-68
2023/10/28 00:12:31;;;;;;;4.67;2.03;;;;;;;;;;469231;28;1000;-67
2023/10/28 00:12:46;;;;;;;4.50;2.30;;;;;;;;;;468481;28;1451;-68
2023/10/28 00:13:02;;;;;;;4.80;2.47;;;;;;;;;;466329;28;1094;-67
2023/10/28 00:13:17;;;;;;;5.07;2.50;;;;;;;;;;467164;28;969;-67
2023/10/28 00:13:33;;;;;;;5.07;2.60;;;;;;;;;;466795;28;925;-67
2023/10/28 00:13:48;;;;;;;5.35;2.75;;;;;;;;;;467983;28;1447;-68
2023/10/28 00:14:04;;;;;;;5.53;2.83;;;;;;;;;;467258;28;1206;-67
2023/10/28 00:14:20;;;;;;;5.80;2.70;;;;;;;;;;466780;28;1312;-68
2023/10/28 00:14:35;;;;;;;6.45;2.50;;;;;;;;;;465631;28;1026;-68
2023/10/28 00:14:51;;;;;;;6.00;2.47;;;;;;;;;;467535;28;1060;-68
2023/10/28 00:15:07;;;;;;;4.80;2.55;;;;;;;;;;467441;28;1118;-68
2023/10/28 00:15:24;;;;;;;4.55;2.50;;;;;;;;;;463370;28;900;-68
2023/10/28 00:15:39;;;;;;;4.63;2.60;;;;;;;;;;464239;28;1025;-68
2023/10/28 00:15:54;;;;;;;4.40;2.43;;;;;;;;;;465327;28;934;-67
2023/10/28 00:16:09;;;;;;;5.90;2.60;;;;;;;;;;465376;28;1299;-68
2023/10/28 00:16:25;;;;;;;5.72;2.55;;;;;;;;;;465392;28;1291;-68
2023/10/28 00:16:40;;;;;;;3.97;2.10;;;;;;;;;;465401;28;951;-67
2023/10/28 00:16:55;;;;;;;4.90;2.27;;;;;;;;;;463992;28;1204;-67
2023/10/28 00:17:11;;;;;;;5.47;2.60;;;;;;;;;;467478;28;1272;-67
2023/10/28 00:17:26;;;;;;;5.13;2.83;;;;;;;;;;466905;28;918;-68
2023/10/28 00:17:41;;;;;;;5.17;3.00;;;;;;;;;;467658;28;1181;-68
2023/10/28 00:17:57;;;;;;;6.23;2.90;;;;;;;;;;466847;28;1230;-68
2023/10/28 00:18:14;;;;;;;6.65;2.80;;;;;;;;;;469536;28;1249;-68
2023/10/28 00:18:29;;;;;;;4.85;2.70;;;;;;;;;;469550;28;1259;-68
2023/10/28 00:18:44;;;;;;;4.60;2.83;;;;;;;;;;469187;28;1073;-67
2023/10/28 00:18:59;;;;;;;4.23;2.53;;;;;;;;;;467106;28;1193;-68
2023/10/28 00:19:16;;;;;;;3.65;2.40;;;;;;;;;;467548;28;1126;-68
2023/10/28 00:19:32;;;;;;;4.18;2.55;;;;;;;;;;467096;28;1028;-68
2023/10/28 00:19:48;;;;;;;4.97;2.75;;;;;;;;;;468912;28;915;-68
2023/10/28 00:20:05;;;;;;;4.38;2.67;;;;;;;;;;469901;28;1200;-68
2023/10/28 00:20:21;;;;;;;4.38;2.40;;;;;;;;;;469242;28;1054;-68
2023/10/28 00:20:37;;;;;;;4.72;2.40;;;;;;;;;;470341;28;1241;-68
2023/10/28 00:20:52;;;;;;;3.78;2.38;;;;;;;;;;471771;28;936;-68
2023/10/28 00:21:09;;;;;;;5.30;2.60;;;;;;;;;;470761;28;1245;-68
2023/10/28 00:21:25;;;;;;;5.90;2.60;;;;;;;;;;471834;28;1095;-68
2023/10/28 00:21:40;;;;;;;4.38;2.45;;;;;;;;;;470387;28;1167;-68
2023/10/28 00:21:55;;;;;;;4.80;2.47;;;;;;;;;;470307;28;890;-68
2023/10/28 00:22:11;;;;;;;5.40;2.55;;;;;;;;;;469696;28;1192;-68
2023/10/28 00:22:26;;;;;;;5.97;2.60;;;;;;;;;;469611;28;1207;-68
2023/10/28 00:22:41;;;;;;;5.43;2.50;;;;;;;;;;469857;28;1032;-68
2023/10/28 00:23:00;;;;;;;4.70;2.67;;;;;;;;;;469544;28;1101;-68
2023/10/28 00:23:17;;;;;;;5.72;2.60;;;;;;;;;;469802;28;965;-68
2023/10/28 00:23:32;;;;;;;6.22;2.60;;;;;;;;;;468967;28;1178;-68
2023/10/28 00:23:47;;;;;;;5.20;2.70;;;;;;;;;;469295;28;1162;-68
2023/10/28 00:24:03;;;;;;;4.93;2.70;;;;;;;;;;468678;28;1415;-68
2023/10/28 00:24:18;;;;;;;5.17;2.70;;;;;;;;;;467644;28;1419;-68
2023/10/28 00:24:33;;;;;;;5.40;2.60;;;;;;;;;;467728;28;1162;-68
2023/10/28 00:24:49;;;;;;;4.90;2.60;;;;;;;;;;466374;28;886;-68
2023/10/28 00:25:05;;;;;;;4.43;2.40;;;;;;;;;;466547;28;1467;-67
2023/10/28 00:25:28;;;;;;;5.20;2.60;;;;;;;;;;466849;28;1357;-68
2023/10/28 00:25:45;;;;;;;5.93;2.60;;;;;;;;;;466533;28;1558;-68
2023/10/28 00:26:01;;;;;;;6.25;2.60;;;;;;;;;;468325;28;1246;-67
2023/10/28 00:26:17;;;;;;;5.20;2.58;;;;;;;;;;469438;28;1118;-68
2023/10/28 00:26:32;;;;;;;6.60;2.63;;;;;;;;;;469545;28;1113;-68
2023/10/28 00:26:47;;;;;;;6.70;2.60;;;;;;;;;;468365;28;1163;-68
2023/10/28 00:27:03;;;;;;;4.85;2.28;;;;;;;;;;468182;28;1163;-68
2023/10/28 00:27:19;;;;;;;5.63;2.37;;;;;;;;;;466251;28;1300;-68
2023/10/28 00:27:35;;;;;;;6.38;2.70;;;;;;;;;;467565;28;1376;-68
2023/10/28 00:27:50;;;;;;;5.53;2.60;;;;;;;;;;468068;28;1078;-68
2023/10/28 00:28:05;;;;;;;4.87;2.33;;;;;;;;;;468355;28;1067;-68
2023/10/28 00:28:21;;;;;;;4.55;2.30;;;;;;;;;;467616;28;1223;-67
2023/10/28 00:28:36;;;;;;;5.70;2.40;;;;;;;;;;467660;28;1255;-67
2023/10/28 00:28:52;;;;;;;5.85;2.63;;;;;;;;;;469044;28;1197;-68
2023/10/28 00:29:07;;;;;;;5.47;2.77;;;;;;;;;;470146;28;1126;-68
2023/10/28 00:29:23;;;;;;;4.87;2.50;;;;;;;;;;468643;28;1263;-68
2023/10/28 00:29:39;;;;;;;3.75;2.20;;;;;;;;;;464890;28;1135;-68
2023/10/28 00:29:54;;;;;;;3.40;2.13;;;;;;;;;;465541;28;938;-68
2023/10/28 00:30:11;;;;;;;4.38;2.40;;;;;;;;;;465770;28;1041;-68
2023/10/28 00:30:26;;;;;;;5.15;2.60;;;;;;;;;;466239;28;1524;-68
2023/10/28 00:30:42;;;;;;;4.80;2.45;;;;;;;;;;464230;28;1320;-68
2023/10/28 00:30:57;;;;;;;5.30;2.40;;;;;;;;;;466802;28;1993;-68
2023/10/28 00:31:19;;;;;;;6.00;2.20;;;;;;;;;;464823;28;945;-68
2023/10/28 00:31:34;;;;;;;5.07;1.70;;;;;;;;;;467731;28;1317;-68
2023/10/28 00:31:50;;;;;;;4.23;1.63;;;;;;;;;;469300;28;1125;-68
2023/10/28 00:32:06;;;;;;;5.10;1.77;;;;;;;;;;466325;28;1675;-67
2023/10/28 00:32:22;;;;;;;5.77;2.03;;;;;;;;;;466573;28;1035;-68
2023/10/28 00:32:38;;;;;;;5.05;2.38;;;;;;;;;;467809;28;878;-68
2023/10/28 00:32:58;;;;;;;5.90;2.50;;;;;;;;;;468345;28;1111;-68
2023/10/28 00:33:15;;;;;;;6.07;2.30;;;;;;;;;;467158;28;1231;-67
2023/10/28 00:33:31;;;;;;;5.68;2.20;;;;;;;;;;468631;28;971;-68
2023/10/28 00:33:46;;;;;;;5.80;2.40;;;;;;;;;;466718;28;1124;-68
2023/10/28 00:34:02;;;;;;;5.47;2.20;;;;;;;;;;468443;28;1093;-68
2023/10/28 00:34:18;;;;;;;5.25;2.00;;;;;;;;;;468535;28;1058;-67
2023/10/28 00:34:33;;;;;;;5.13;2.03;;;;;;;;;;468199;28;1081;-68
2023/10/28 00:34:49;;;;;;;4.67;2.20;;;;;;;;;;468979;28;1109;-68
2023/10/28 00:35:07;;;;;;;4.03;2.20;;;;;;;;;;469449;28;1457;-68
2023/10/28 00:35:22;;;;;;;4.82;2.20;;;;;;;;;;468877;28;1211;-68
2023/10/28 00:35:37;;;;;;;5.00;2.30;;;;;;;;;;469393;28;920;-68
2023/10/28 00:35:54;;;;;;;4.38;2.28;;;;;;;;;;468116;28;1121;-68
2023/10/28 00:36:11;;;;;;;4.45;2.20;;;;;;;;;;468973;28;1499;-68
2023/10/28 00:36:26;;;;;;;4.82;2.25;;;;;;;;;;468980;28;1156;-68
2023/10/28 00:36:41;;;;;;;5.27;2.20;;;;;;;;;;468594;28;1036;-68
2023/10/28 00:36:57;;;;;;;5.38;2.28;;;;;;;;;;468676;28;1069;-68
2023/10/28 00:37:12;;;;;;;3.80;2.10;;;;;;;;;;468758;28;1167;-68
2023/10/28 00:37:27;;;;;;;4.10;2.10;;;;;;;;;;471397;28;914;-68
2023/10/28 00:37:42;;;;;;;5.03;2.17;;;;;;;;;;468684;28;1285;-68
2023/10/28 00:37:58;;;;;;;4.53;2.10;;;;;;;;;;468881;28;1116;-68
2023/10/28 00:38:13;;;;;;;4.17;2.20;;;;;;;;;;469400;28;1078;-69
2023/10/28 00:38:28;;;;;;;4.85;2.20;;;;;;;;;;467225;28;1365;-68
2023/10/28 00:38:44;;;;;;;4.87;2.13;;;;;;;;;;468629;28;981;-68
2023/10/28 00:39:00;;;;;;;4.70;2.10;;;;;;;;;;469432;28;1286;-68
2023/10/28 00:39:15;;;;;;;5.17;2.27;;;;;;;;;;468653;28;1044;-68
2023/10/28 00:39:30;;;;;;;6.07;2.70;;;;;;;;;;468197;28;940;-68
2023/10/28 00:39:46;;;;;;;5.90;3.00;;;;;;;;;;468937;28;1203;-68
2023/10/28 00:40:05;;;;;;;4.78;2.65;;;;;;;;;;467959;28;1307;-68
2023/10/28 00:40:25;;;;;;;4.90;2.47;;;;;;;;;;466511;28;1250;-68
2023/10/28 00:40:42;;;;;;;6.30;2.58;;;;;;;;;;466535;28;1085;-68
2023/10/28 00:40:57;;;;;;;5.82;2.33;;;;;;;;;;468306;28;1069;-68
2023/10/28 00:41:13;;;;;;;5.47;2.30;;;;;;;;;;468730;28;998;-67
2023/10/28 00:41:28;;;;;;;5.57;2.40;;;;;;;;;;467778;28;1347;-68
2023/10/28 00:41:44;;;;;;;6.80;2.35;;;;;;;;;;465977;28;1231;-68
2023/10/28 00:42:01;;;;;;;6.57;2.17;;;;;;;;;;464995;28;1233;-68
2023/10/28 00:42:17;;;;;;;4.82;2.03;;;;;;;;;;469307;28;1202;-68
2023/10/28 00:42:35;;;;;;;4.03;1.92;;;;;;;;;;464539;28;1263;-68
2023/10/28 00:42:50;;;;;;;5.05;2.25;;;;;;;;;;464795;28;1171;-68
2023/10/28 00:43:07;;;;;;;5.18;2.20;;;;;;;;;;466344;28;1238;-68
2023/10/28 00:43:22;;;;;;;5.55;2.00;;;;;;;;;;467197;28;874;-68
2023/10/28 00:43:38;;;;;;;6.25;2.10;;;;;;;;;;468690;28;1234;-67
2023/10/28 00:43:54;;;;;;;5.77;2.10;;;;;;;;;;469753;28;866;-68
2023/10/28 00:44:10;;;;;;;5.50;2.45;;;;;;;;;;470751;28;1781;-68
2023/10/28 00:44:25;;;;;;;5.83;2.90;;;;;;;;;;469001;28;1016;-67
2023/10/28 00:44:40;;;;;;;6.23;3.03;;;;;;;;;;469562;28;980;-68
2023/10/28 00:44:56;;;;;;;7.25;3.10;;;;;;;;;;467953;28;1199;-68
2023/10/28 00:45:13;;;;;;;6.53;3.00;;;;;;;;;;467055;28;1156;-68
2023/10/28 00:45:28;;;;;;;4.95;2.45;;;;;;;;;;467409;28;1108;-68
2023/10/28 00:45:44;;;;;;;3.95;1.92;;;;;;;;;;468963;28;1027;-68
2023/10/28 00:46:00;;;;;;;4.77;2.27;;;;;;;;;;466797;28;1325;-68
2023/10/28 00:46:16;;;;;;;5.32;2.35;;;;;;;;;;467104;28;1127;-68
2023/10/28 00:46:31;;;;;;;5.20;1.93;;;;;;;;;;468677;28;905;-68
2023/10/28 00:46:47;;;;;;;4.65;1.80;;;;;;;;;;466870;28;1092;-68
2023/10/28 00:47:02;;;;;;;4.00;1.70;;;;;;;;;;468908;28;1134;-68
2023/10/28 00:47:18;;;;;;;4.20;1.80;;;;;;;;;;468800;28;1445;-68
2023/10/28 00:47:33;;;;;;;4.23;1.87;;;;;;;;;;466563;28;1109;-68
2023/10/28 00:47:49;;;;;;;4.07;1.70;;;;;;;;;;467296;28;1065;-67
2023/10/28 00:48:04;;;;;;;3.70;1.57;;;;;;;;;;468210;28;1105;-68
2023/10/28 00:48:20;;;;;;;3.75;1.50;;;;;;;;;;467503;28;1075;-68
2023/10/28 00:48:37;;;;;;;3.83;1.60;;;;;;;;;;467882;28;1420;-67
2023/10/28 00:48:53;;;;;;;3.45;1.63;;;;;;;;;;468225;28;905;-68
2023/10/28 00:49:09;;;;;;;3.88;1.60;;;;;;;;;;470242;28;1064;-69
2023/10/28 00:49:24;;;;;;;4.40;1.70;;;;;;;;;;472082;28;1046;-70
2023/10/28 00:49:42;;;;;;;4.55;1.70;;;;;;;;;;471000;28;960;-69
2023/10/28 00:49:58;;;;;;;4.75;1.77;;;;;;;;;;471869;28;972;-69
2023/10/28 00:50:14;;;;;;;4.73;1.73;;;;;;;;;;471080;28;1070;-69
2023/10/28 00:50:30;;;;;;;5.63;1.92;;;;;;;;;;470099;28;1113;-70
2023/10/28 00:50:45;;;;;;;5.53;1.90;;;;;;;;;;470276;28;897;-70
2023/10/28 00:51:01;;;;;;;5.35;1.80;;;;;;;;;;469495;28;1985;-70
2023/10/28 00:51:16;;;;;;;6.27;1.90;;;;;;;;;;470424;28;1132;-69
2023/10/28 00:51:32;;;;;;;5.33;1.73;;;;;;;;;;469775;28;1382;-69
2023/10/28 00:51:47;;;;;;;5.00;1.63;;;;;;;;;;470215;28;869;-70
2023/10/28 00:52:03;;;;;;;5.35;1.70;;;;;;;;;;470234;28;1004;-70
2023/10/28 00:52:19;;;;;;;4.95;1.70;;;;;;;;;;469796;28;1180;-70
2023/10/28 00:52:37;;;;;;;5.13;1.80;;;;;;;;;;469639;28;1205;-69
2023/10/28 00:52:54;;;;;;;3.85;1.50;;;;;;;;;;470648;28;1262;-69
2023/10/28 00:53:10;;;;;;;2.88;1.40;;;;;;;;;;471137;28;1043;-69
2023/10/28 00:53:27;;;;;;;3.28;1.50;;;;;;;;;;470296;28;976;-69
2023/10/28 00:53:42;;;;;;;3.70;1.50;;;;;;;;;;468385;28;1432;-70
2023/10/28 00:53:58;;;;;;;4.68;1.67;;;;;;;;;;471345;28;1478;-69
2023/10/28 00:54:13;;;;;;;4.80;2.00;;;;;;;;;;470562;28;956;-69
2023/10/28 00:54:29;;;;;;;4.72;2.03;;;;;;;;;;470357;28;1006;-69
2023/10/28 00:54:47;;;;;;;4.83;1.90;;;;;;;;;;469524;28;1085;-71
2023/10/28 00:55:03;;;;;;;5.13;1.92;;;;;;;;;;471272;28;1344;-69
2023/10/28 00:55:22;;;;;;;5.22;1.92;;;;;;;;;;471294;28;873;-69
2023/10/28 00:55:38;;;;;;;4.38;1.73;;;;;;;;;;472856;28;981;-69
2023/10/28 00:55:54;;;;;;;3.67;1.50;;;;;;;;;;470430;28;925;-69
2023/10/28 00:56:11;;;;;;;3.60;1.50;;;;;;;;;;470252;28;990;-69
2023/10/28 00:56:27;;;;;;;3.40;1.60;;;;;;;;;;470883;28;1286;-69
2023/10/28 00:56:42;;;;;;;3.83;1.60;;;;;;;;;;470684;28;1362;-69
2023/10/28 00:56:58;;;;;;;4.07;1.77;;;;;;;;;;470975;28;1294;-69
2023/10/28 00:57:17;;;;;;;3.08;1.70;;;;;;;;;;468614;28;1206;-69
2023/10/28 00:57:33;;;;;;;3.90;1.60;;;;;;;;;;467557;28;1357;-69
2023/10/28 00:57:49;;;;;;;5.78;1.73;;;;;;;;;;467426;28;2147;-69
2023/10/28 00:58:06;;;;;;;7.30;1.70;;;;;;;;;;467815;28;1054;-69
2023/10/28 00:58:22;;;;;;;7.30;1.70;;;;;;;;;;467382;28;1400;-69
2023/10/28 00:58:39;;;;;;;4.60;1.60;;;;;;;;;;467626;28;1031;-70
2023/10/28 00:58:56;;;;;;;3.40;1.70;;;;;;;;;;469631;28;898;-69
2023/10/28 00:59:12;;;;;;;4.03;1.70;;;;;;;;;;466321;28;1057;-69
2023/10/28 00:59:28;;;;;;;4.50;1.50;;;;;;;;;;466439;28;1058;-70
2023/10/28 00:59:43;;;;;;;5.25;1.50;;;;;;;;;;465447;28;1051;-69
2023/10/28 00:59:59;;;;;;;6.13;1.70;;;;;;;;;;463422;28;1161;-69
2023/10/28 01:00:15;;;;;;;6.53;1.90;;;;;;;;;;465779;28;1295;-69
2023/10/28 01:00:30;;;;;;;4.87;1.80;;;;;;;;;;466325;28;1265;-69
2023/10/28 01:00:46;;;;;;;4.13;1.80;;;;;;;;;;466103;28;1041;-70
2023/10/28 01:01:02;;;;;;;4.13;1.70;;;;;;;;;;467420;28;1188;-69
2023/10/28 01:01:18;;;;;;;4.65;1.80;;;;;;;;;;468585;28;1270;-70
2023/10/28 01:01:33;;;;;;;5.33;1.70;;;;;;;;;;468645;28;946;-70
2023/10/28 01:01:48;;;;;;;4.63;1.55;;;;;;;;;;467608;28;964;-69
2023/10/28 01:02:04;;;;;;;4.53;1.70;;;;;;;;;;469340;28;922;-69
2023/10/28 01:02:19;;;;;;;4.73;1.80;;;;;;;;;;469570;28;1206;-69
2023/10/28 01:02:35;;;;;;;4.50;1.80;;;;;;;;;;470419;28;1082;-70
2023/10/28 01:02:52;;;;;;;4.63;1.70;;;;;;;;;;468586;28;916;-70
2023/10/28 01:03:09;;;;;;;4.72;1.70;;;;;;;;;;469735;28;1219;-69
2023/10/28 01:03:25;;;;;;;3.90;1.70;;;;;;;;;;472523;28;878;-69
2023/10/28 01:03:40;;;;;;;3.80;1.77;;;;;;;;;;471158;28;1121;-70
2023/10/28 01:03:55;;;;;;;3.80;1.83;;;;;;;;;;467848;28;1247;-70
2023/10/28 01:04:11;;;;;;;4.07;1.67;;;;;;;;;;469478;28;1061;-69
2023/10/28 01:04:27;;;;;;;4.00;1.60;;;;;;;;;;469257;28;877;-70
2023/10/28 01:04:42;;;;;;;4.67;1.70;;;;;;;;;;468758;28;992;-70
2023/10/28 01:04:59;;;;;;;5.20;1.58;;;;;;;;;;469342;28;1109;-69
2023/10/28 01:05:16;;;;;;;4.28;1.48;;;;;;;;;;470616;28;1052;-70
2023/10/28 01:05:33;;;;;;;4.28;1.67;;;;;;;;;;470460;28;1035;-70
2023/10/28 01:05:49;;;;;;;4.20;1.70;;;;;;;;;;471814;28;1117;-70
2023/10/28 01:06:04;;;;;;;4.77;1.70;;;;;;;;;;470770;28;1329;-70
2023/10/28 01:06:20;;;;;;;4.57;1.48;;;;;;;;;;468745;28;1264;-70
2023/10/28 01:06:35;;;;;;;4.17;1.40;;;;;;;;;;468999;28;1179;-70
2023/10/28 01:06:50;;;;;;;4.75;1.50;;;;;;;;;;468526;28;897;-69
2023/10/28 01:07:08;;;;;;;4.60;1.40;;;;;;;;;;468607;28;1101;-70
2023/10/28 01:07:23;;;;;;;4.40;1.48;;;;;;;;;;467594;28;1462;-70
2023/10/28 01:07:40;;;;;;;4.10;1.63;;;;;;;;;;467945;28;1080;-69
2023/10/28 01:07:58;;;;;;;3.17;1.50;;;;;;;;;;468344;28;922;-70
2023/10/28 01:08:13;;;;;;;2.75;1.33;;;;;;;;;;468527;28;938;-69
2023/10/28 01:08:28;;;;;;;3.03;1.50;;;;;;;;;;470766;28;964;-69
2023/10/28 01:08:44;;;;;;;3.37;1.60;;;;;;;;;;469173;28;1115;-70
2023/10/28 01:08:59;;;;;;;3.53;1.40;;;;;;;;;;468987;28;905;-69
2023/10/28 01:09:14;;;;;;;3.75;1.30;;;;;;;;;;469024;28;1278;-69
2023/10/28 01:09:30;;;;;;;3.40;1.40;;;;;;;;;;471067;28;1058;-69
2023/10/28 01:09:46;;;;;;;3.00;1.40;;;;;;;;;;470628;28;1420;-69
2023/10/28 01:10:03;;;;;;;3.25;1.40;;;;;;;;;;470800;28;1118;-69
2023/10/28 01:10:29;;;;;;;2.90;1.40;;;;;;;;;;470528;28;1314;-69
2023/10/28 01:10:44;;;;;;;5.90;1.70;;;;;;;;;;471052;28;1317;-70
2023/10/28 01:11:01;;;;;;;5.03;1.60;;;;;;;;;;471297;28;921;-69
2023/10/28 01:11:16;;;;;;;3.70;1.40;;;;;;;;;;468563;28;1081;-69
2023/10/28 01:11:35;;;;;;;2.93;1.30;;;;;;;;;;470703;28;1180;-69
2023/10/28 01:11:53;;;;;;;2.10;1.20;;;;;;;;;;469325;28;1092;-69
2023/10/28 01:12:09;;;;;;;2.53;1.20;;;;;;;;;;468313;28;1151;-69
2023/10/28 01:12:26;;;;;;;5.03;1.43;;;;;;;;;;468669;28;1013;-69
2023/10/28 01:12:42;;;;;;;6.25;1.70;;;;;;;;;;469522;28;1221;-70
2023/10/28 01:12:58;;;;;;;5.00;1.60;;;;;;;;;;468746;28;1250;-70
2023/10/28 01:13:14;;;;;;;3.85;1.63;;;;;;;;;;469251;28;898;-69
2023/10/28 01:13:30;;;;;;;5.43;1.90;;;;;;;;;;468837;28;886;-70
2023/10/28 01:13:45;;;;;;;4.80;1.67;;;;;;;;;;468120;28;1199;-69
2023/10/28 01:14:00;;;;;;;3.28;1.50;;;;;;;;;;467364;28;917;-69
2023/10/28 01:14:16;;;;;;;3.87;1.60;;;;;;;;;;467279;28;1371;-70
2023/10/28 01:14:31;;;;;;;4.27;1.70;;;;;;;;;;469115;28;1255;-70
2023/10/28 01:14:46;;;;;;;5.03;1.80;;;;;;;;;;469075;28;945;-69
2023/10/28 01:15:02;;;;;;;4.73;1.90;;;;;;;;;;471238;28;850;-70
2023/10/28 01:15:17;;;;;;;3.90;1.80;;;;;;;;;;468712;28;1222;-69
2023/10/28 01:15:33;;;;;;;3.53;1.70;;;;;;;;;;469716;28;894;-70
2023/10/28 01:15:48;;;;;;;3.55;1.67;;;;;;;;;;471577;28;1305;-69
2023/10/28 01:16:08;;;;;;;3.37;1.50;;;;;;;;;;470963;28;870;-69
2023/10/28 01:16:23;;;;;;;3.63;1.60;;;;;;;;;;470223;28;1179;-70
2023/10/28 01:16:38;;;;;;;3.80;1.60;;;;;;;;;;470767;28;1338;-69
2023/10/28 01:16:54;;;;;;;4.07;1.77;;;;;;;;;;471051;28;1579;-69
2023/10/28 01:17:13;;;;;;;4.25;1.80;;;;;;;;;;468065;28;1295;-70
2023/10/28 01:17:29;;;;;;;5.18;1.80;;;;;;;;;;469225;28;1170;-69
2023/10/28 01:17:45;;;;;;;4.60;1.60;;;;;;;;;;469189;28;1278;-70
2023/10/28 01:18:00;;;;;;;3.38;1.70;;;;;;;;;;469802;28;1235;-70
2023/10/28 01:18:16;;;;;;;3.73;1.60;;;;;;;;;;469700;28;909;-70
2023/10/28 01:18:31;;;;;;;3.27;1.50;;;;;;;;;;468744;28;1283;-70
2023/10/28 01:18:54;;;;;;;2.80;1.55;;;;;;;;;;468889;28;1272;-70
2023/10/28 01:19:09;;;;;;;3.40;1.70;;;;;;;;;;468612;28;908;-70
2023/10/28 01:19:24;;;;;;;3.03;1.60;;;;;;;;;;468633;28;902;-69
2023/10/28 01:19:40;;;;;;;3.53;1.60;;;;;;;;;;469025;28;898;-70
2023/10/28 01:19:56;;;;;;;3.35;1.50;;;;;;;;;;469248;28;1191;-70
2023/10/28 01:20:12;;;;;;;3.58;1.55;;;;;;;;;;469900;28;1176;-69
2023/10/28 01:20:27;;;;;;;4.13;1.70;;;;;;;;;;469180;28;1157;-69
2023/10/28 01:20:42;;;;;;;3.97;1.60;;;;;;;;;;471152;28;921;-69
2023/10/28 01:21:08;;;;;;;4.20;1.73;;;;;;;;;;470192;28;1171;-70
2023/10/28 01:21:23;;;;;;;4.13;1.80;;;;;;;;;;470180;28;1119;-69
2023/10/28 01:21:40;;;;;;;3.37;1.60;;;;;;;;;;469685;28;1044;-70
2023/10/28 01:21:55;;;;;;;3.15;1.58;;;;;;;;;;470391;28;965;-70
2023/10/28 01:22:10;;;;;;;2.90;1.50;;;;;;;;;;470260;28;983;-70
2023/10/28 01:22:26;;;;;;;3.07;1.30;;;;;;;;;;470599;28;881;-70
2023/10/28 01:22:41;;;;;;;3.38;1.30;;;;;;;;;;470808;28;1229;-70
2023/10/28 01:22:58;;;;;;;3.60;1.40;;;;;;;;;;470094;28;854;-69
2023/10/28 01:23:14;;;;;;;5.00;1.70;;;;;;;;;;468980;28;1156;-70
2023/10/28 01:23:30;;;;;;;5.97;1.80;;;;;;;;;;468519;28;1096;-69
2023/10/28 01:23:45;;;;;;;5.05;1.60;;;;;;;;;;466677;28;1358;-70
2023/10/28 01:24:01;;;;;;;2.60;1.40;;;;;;;;;;466511;28;1202;-69
2023/10/28 01:24:16;;;;;;;2.72;1.30;;;;;;;;;;467452;28;1149;-69
2023/10/28 01:24:35;;;;;;;3.03;1.30;;;;;;;;;;467064;28;984;-70
2023/10/28 01:24:51;;;;;;;2.75;1.10;;;;;;;;;;466745;28;883;-69
2023/10/28 01:25:07;;;;;;;2.80;1.10;;;;;;;;;;467816;28;1117;-69
2023/10/28 01:25:22;;;;;;;2.83;1.20;;;;;;;;;;469558;28;1125;-70
2023/10/28 01:25:37;;;;;;;2.58;1.27;;;;;;;;;;469471;28;1076;-70
2023/10/28 01:25:52;;;;;;;2.50;1.23;;;;;;;;;;468906;28;1301;-70
2023/10/28 01:26:08;;;;;;;2.30;1.20;;;;;;;;;;469788;28;898;-70
2023/10/28 01:26:23;;;;;;;3.42;1.40;;;;;;;;;;473066;28;993;-70
2023/10/28 01:26:38;;;;;;;3.60;1.40;;;;;;;;;;471390;28;1089;-70
2023/10/28 01:26:54;;;;;;;2.40;1.17;;;;;;;;;;471847;28;1009;-70
2023/10/28 01:27:10;;;;;;;2.35;1.20;;;;;;;;;;471598;28;1608;-69
2023/10/28 01:27:26;;;;;;;2.80;1.10;;;;;;;;;;471230;28;905;-70
2023/10/28 01:27:43;;;;;;;3.78;1.10;;;;;;;;;;470168;28;1179;-69
2023/10/28 01:27:58;;;;;;;4.55;1.27;;;;;;;;;;470397;28;1210;-70
2023/10/28 01:28:14;;;;;;;4.00;1.33;;;;;;;;;;471344;28;926;-70
2023/10/28 01:28:29;;;;;;;3.30;1.30;;;;;;;;;;470580;28;878;-70
2023/10/28 01:28:45;;;;;;;2.92;1.10;;;;;;;;;;469366;28;1266;-70
2023/10/28 01:29:03;;;;;;;2.90;1.07;;;;;;;;;;468992;28;1191;-69
2023/10/28 01:29:19;;;;;;;2.47;1.15;;;;;;;;;;469336;28;977;-70
2023/10/28 01:29:34;;;;;;;2.90;1.20;;;;;;;;;;470041;28;977;-69
2023/10/28 01:29:51;;;;;;;2.80;1.17;;;;;;;;;;469018;28;1053;-69
2023/10/28 01:30:13;;;;;;;2.45;1.13;;;;;;;;;;468517;28;1553;-70
2023/10/28 01:30:28;;;;;;;3.50;1.20;;;;;;;;;;468246;28;1187;-70
2023/10/28 01:30:43;;;;;;;3.43;1.20;;;;;;;;;;470770;28;899;-70
2023/10/28 01:31:00;;;;;;;3.07;1.20;;;;;;;;;;469686;28;1671;-69
2023/10/28 01:31:17;;;;;;;2.92;1.20;;;;;;;;;;466854;28;2064;-69
2023/10/28 01:31:32;;;;;;;2.88;1.10;;;;;;;;;;467276;28;1301;-70
2023/10/28 01:31:48;;;;;;;3.13;1.30;;;;;;;;;;467085;28;1165;-69
2023/10/28 01:32:03;;;;;;;2.67;1.30;;;;;;;;;;467519;28;994;-70
2023/10/28 01:32:19;;;;;;;2.65;1.23;;;;;;;;;;467876;28;1101;-70
2023/10/28 01:32:35;;;;;;;2.38;1.20;;;;;;;;;;468779;28;1017;-69
2023/10/28 01:32:50;;;;;;;2.47;1.20;;;;;;;;;;469188;28;1036;-70
2023/10/28 01:33:05;;;;;;;2.67;1.30;;;;;;;;;;469696;28;890;-70
2023/10/28 01:33:21;;;;;;;2.30;1.13;;;;;;;;;;469259;28;1219;-69
2023/10/28 01:33:36;;;;;;;2.43;1.00;;;;;;;;;;471557;28;1061;-69
2023/10/28 01:33:51;;;;;;;3.05;1.10;;;;;;;;;;465546;28;1181;-71
2023/10/28 01:34:06;;;;;;;3.20;1.10;;;;;;;;;;464815;28;1085;-69
2023/10/28 01:34:22;;;;;;;3.80;1.20;;;;;;;;;;463713;28;1120;-70
2023/10/28 01:34:54;;;;;;;4.32;1.35;;;;;;;;;;463851;28;966;-69
2023/10/28 01:35:09;;;;;;;3.40;1.40;;;;;;;;;;466221;28;985;-70
2023/10/28 01:35:25;;;;;;;2.67;1.30;;;;;;;;;;467666;28;968;-70
2023/10/28 01:35:40;;;;;;;2.90;1.17;;;;;;;;;;467420;28;1166;-70
2023/10/28 01:35:55;;;;;;;4.30;1.10;;;;;;;;;;468806;28;1083;-69
2023/10/28 01:36:11;;;;;;;3.80;1.10;;;;;;;;;;467336;28;1085;-69
2023/10/28 01:36:26;;;;;;;3.15;1.10;;;;;;;;;;467185;28;890;-70
2023/10/28 01:36:43;;;;;;;4.77;1.30;;;;;;;;;;467453;28;917;-70
2023/10/28 01:36:59;;;;;;;3.97;1.20;;;;;;;;;;468060;28;1270;-69
2023/10/28 01:37:18;;;;;;;3.20;1.08;;;;;;;;;;466803;28;1304;-70
2023/10/28 01:37:33;;;;;;;2.80;0.90;;;;;;;;;;467381;28;1077;-69
2023/10/28 01:37:49;;;;;;;2.73;1.00;;;;;;;;;;468188;28;962;-70
2023/10/28 01:38:04;;;;;;;2.58;1.00;;;;;;;;;;469072;28;1313;-69
2023/10/28 01:38:20;;;;;;;1.90;0.90;;;;;;;;;;469190;28;1268;-70
2023/10/28 01:38:36;;;;;;;2.50;0.82;;;;;;;;;;468809;28;1329;-69
2023/10/28 01:38:51;;;;;;;2.95;1.02;;;;;;;;;;468158;28;1057;-70
2023/10/28 01:39:07;;;;;;;2.80;1.00;;;;;;;;;;466199;28;1199;-70
2023/10/28 01:39:22;;;;;;;2.35;0.90;;;;;;;;;;467344;28;1041;-70
2023/10/28 01:39:38;;;;;;;2.13;0.90;;;;;;;;;;468015;28;1011;-69